Del Norte — WDC2280 — position and weather

sailwx.info

Track history (hours):
 
Tides and Currents Weather Stations Pressure Air Temp Water Temp Dewpoint Dewpoint Depression Visibility Wind Speed Wind Dir Waves Ship Positions

Del Norte

Owner: Golden Gate Bridge,Hwy & Transportation District, Larkspur, CA. More information available from US FCC via Universal Licensing System and Coast Guard Vessel Documentation Center.

Last reported at 2015-Feb-16 03:28 UTC. Time now 2015-Mar-05 08:09 UTC.
Position N 37°57' W 122°31'.
Warning: this ship's position is 17 days out of date.

Length 48 m.

Type: High speed craft. MMSI: 366990520.

Date/timePositionNaut miles runAvg speedWind from/ knotsBaromVisibWave heightAir tempDewpointWater temp
2015-Feb-16 03:28N 37°57' W 122°31'1010.8
2015-Feb-16 02:33N 37°49' W 122°23'1 1.1
2015-Feb-16 01:33N 37°48' W 122°24'1110.5
2015-Feb-16 00:33N 37°57' W 122°31'1110.5
2015-Feb-15 23:34N 37°48' W 122°24'0 0.0
2015-Feb-15 22:33N 37°48' W 122°24'1010.4
2015-Feb-15 21:33N 37°57' W 122°30'1010.5
2015-Feb-15 20:34N 37°48' W 122°24'1010.4
2015-Feb-15 19:33N 37°57' W 122°30'0 0.0
2015-Feb-15 05:06N 37°57' W 122°30'5 9.0
2015-Feb-15 04:34N 37°53' W 122°26'3 3.1
2015-Feb-15 03:33N 37°51' W 122°29'5 5.4
2015-Feb-15 02:33N 37°48' W 122°24'0 0.1
2015-Feb-15 01:33N 37°48' W 122°23'1010.6
2015-Feb-15 00:33N 37°57' W 122°30'1010.5
2015-Feb-14 23:33N 37°48' W 122°24'0 0.0
2015-Feb-14 22:33N 37°48' W 122°24'1010.5
2015-Feb-14 21:33N 37°57' W 122°30'1010.4
2015-Feb-14 20:33N 37°48' W 122°24'1010.5
2015-Feb-14 19:34N 37°57' W 122°30'6 0.4
2015-Feb-14 03:34N 37°52' W 122°25'6 6.4
2015-Feb-14 02:33N 37°57' W 122°30'7 6.8
2015-Feb-14 01:33N 37°52' W 122°25'4 4.0
2015-Feb-14 00:33N 37°48' W 122°24'1010.5
2015-Feb-13 23:34N 37°57' W 122°30'5 4.7
2015-Feb-13 22:34N 37°53' W 122°26'5 4.7
2015-Feb-13 21:33N 37°57' W 122°31'0 0.0
2015-Feb-13 20:33N 37°57' W 122°31'0 0.0
2015-Feb-13 19:33N 37°57' W 122°31'9 9.1
2015-Feb-13 18:34N 37°49' W 122°24'8 8.1
2015-Feb-13 17:34N 37°56' W 122°29'2 1.5
2015-Feb-13 16:34N 37°55' W 122°28'8 8.3
2015-Feb-13 15:33N 37°48' W 122°24'5 4.6
2015-Feb-13 14:34N 37°52' W 122°25'6 6.3
2015-Feb-13 13:33N 37°57' W 122°30'  
Track history (hours):
 
Tides and Currents Weather Stations Pressure Air Temp Water Temp Dewpoint Dewpoint Depression Visibility Wind Speed Wind Dir Waves Ship Positions

Del Norte

Owner: Golden Gate Bridge,Hwy & Transportation District, Larkspur, CA. More information available from US FCC via Universal Licensing System and Coast Guard Vessel Documentation Center.

Last reported at 2015-Feb-16 03:28 UTC. Time now 2015-Mar-05 08:09 UTC.
Position N 37°57' W 122°31'.
Warning: this ship's position is 17 days out of date.

Length 48 m.

Type: High speed craft. MMSI: 366990520.

Date/timePositionNaut miles runAvg speedWind from/ knotsBaromVisibWave heightAir tempDewpointWater temp
2015-Feb-16 03:28N 37°57' W 122°31'1010.8
2015-Feb-16 02:33N 37°49' W 122°23'1 1.1
2015-Feb-16 01:33N 37°48' W 122°24'1110.5
2015-Feb-16 00:33N 37°57' W 122°31'1110.5
2015-Feb-15 23:34N 37°48' W 122°24'0 0.0
2015-Feb-15 22:33N 37°48' W 122°24'1010.4
2015-Feb-15 21:33N 37°57' W 122°30'1010.5
2015-Feb-15 20:34N 37°48' W 122°24'1010.4
2015-Feb-15 19:33N 37°57' W 122°30'0 0.0
2015-Feb-15 05:06N 37°57' W 122°30'5 9.0
2015-Feb-15 04:34N 37°53' W 122°26'3 3.1
2015-Feb-15 03:33N 37°51' W 122°29'5 5.4
2015-Feb-15 02:33N 37°48' W 122°24'0 0.1
2015-Feb-15 01:33N 37°48' W 122°23'1010.6
2015-Feb-15 00:33N 37°57' W 122°30'1010.5
2015-Feb-14 23:33N 37°48' W 122°24'0 0.0
2015-Feb-14 22:33N 37°48' W 122°24'1010.5
2015-Feb-14 21:33N 37°57' W 122°30'1010.4
2015-Feb-14 20:33N 37°48' W 122°24'1010.5
2015-Feb-14 19:34N 37°57' W 122°30'6 0.4
2015-Feb-14 03:34N 37°52' W 122°25'6 6.4
2015-Feb-14 02:33N 37°57' W 122°30'7 6.8
2015-Feb-14 01:33N 37°52' W 122°25'4 4.0
2015-Feb-14 00:33N 37°48' W 122°24'1010.5
2015-Feb-13 23:34N 37°57' W 122°30'5 4.7
2015-Feb-13 22:34N 37°53' W 122°26'5 4.7
2015-Feb-13 21:33N 37°57' W 122°31'0 0.0
2015-Feb-13 20:33N 37°57' W 122°31'0 0.0
2015-Feb-13 19:33N 37°57' W 122°31'9 9.1
2015-Feb-13 18:34N 37°49' W 122°24'8 8.1
2015-Feb-13 17:34N 37°56' W 122°29'2 1.5
2015-Feb-13 16:34N 37°55' W 122°28'8 8.3
2015-Feb-13 15:33N 37°48' W 122°24'5 4.6
2015-Feb-13 14:34N 37°52' W 122°25'6 6.3
2015-Feb-13 13:33N 37°57' W 122°30'  

Dump ship's entire track history